createdAt,value
2018-02-05T00:00:52.112Z,26.30
2018-02-05T00:02:53.083Z,28.27
2018-02-05T00:04:54.074Z,27.10
2018-02-05T00:07:09.327Z,27.40
2018-02-05T00:09:10.301Z,25.13
2018-02-05T00:11:11.288Z,26.00
2018-02-05T00:13:26.706Z,26.17
2018-02-05T00:15:27.744Z,25.97
2018-02-05T00:17:28.778Z,24.33
2018-02-05T00:19:29.755Z,26.67
2018-02-05T00:21:37.162Z,26.30
2018-02-05T00:24:01.064Z,26.30
2018-02-05T00:26:02.076Z,25.57
2018-02-05T00:28:03.083Z,25.23
2018-02-05T00:30:08.578Z,26.20
2018-02-05T00:32:10.315Z,26.13
2018-02-05T00:34:11.366Z,26.97
2018-02-05T00:36:12.331Z,26.70
2018-02-05T00:38:13.298Z,24.73
2018-02-05T00:40:14.332Z,27.50
2018-02-05T00:42:15.316Z,26.30
2018-02-05T00:44:16.303Z,24.83
2018-02-05T00:46:17.276Z,26.03
2018-02-05T00:48:18.277Z,24.77
2018-02-05T00:52:31.680Z,24.80
2018-02-05T00:54:32.679Z,24.50
2018-02-05T00:56:33.633Z,24.37
2018-02-05T00:58:34.687Z,24.43
2018-02-05T01:00:35.671Z,23.90
2018-02-05T01:02:36.691Z,23.53
2018-02-05T01:07:05.276Z,22.10
2018-02-05T01:09:06.261Z,23.00
2018-02-05T01:11:07.257Z,23.47
2018-02-05T01:13:08.227Z,22.07
2018-02-05T01:15:09.787Z,23.23
2018-02-05T01:17:21.829Z,23.77
2018-02-05T01:19:22.821Z,21.83
2018-02-05T01:21:40.442Z,22.27
2018-02-05T01:24:05.592Z,24.00
2018-02-05T01:26:06.863Z,23.27
2018-02-05T01:28:07.822Z,22.37
2018-02-05T01:30:08.791Z,23.30
2018-02-05T01:32:09.763Z,22.20
2018-02-05T01:34:10.794Z,21.77
2018-02-05T01:36:12.522Z,20.33
2018-02-05T01:38:13.493Z,23.30
2018-02-05T01:40:14.469Z,23.40
2018-02-05T01:42:15.484Z,23.33
2018-02-05T01:44:16.487Z,23.57
2018-02-05T01:46:19.109Z,23.20
2018-02-05T01:48:21.600Z,22.70
2018-02-05T01:50:22.751Z,23.20
2018-02-05T01:52:23.736Z,23.47
2018-02-05T01:54:25.968Z,22.87
2018-02-05T01:56:26.966Z,22.40
2018-02-05T01:58:28.192Z,24.70
2018-02-05T02:00:29.172Z,25.00
2018-02-05T02:02:30.151Z,21.80
2018-02-05T02:04:31.236Z,23.83
2018-02-05T02:06:32.434Z,23.40
2018-02-05T02:08:33.424Z,21.50
2018-02-05T02:10:35.135Z,24.20
2018-02-05T02:12:36.335Z,20.83
2018-02-05T02:14:39.507Z,21.53
2018-02-05T02:16:40.634Z,21.77
2018-02-05T02:18:41.599Z,21.57
2018-02-05T02:20:42.552Z,21.63
2018-02-05T02:22:43.524Z,20.80
2018-02-05T02:24:45.256Z,21.43
2018-02-05T02:26:46.215Z,19.93
2018-02-05T02:28:49.333Z,20.57
2018-02-05T02:30:52.814Z,19.70
2018-02-05T02:32:53.902Z,21.27
2018-02-05T02:34:54.919Z,20.37
2018-02-05T02:36:55.865Z,21.50
2018-02-05T02:38:57.726Z,20.30
2018-02-05T02:40:58.745Z,20.47
2018-02-05T02:42:59.768Z,19.77
2018-02-05T02:45:08.762Z,20.53
2018-02-05T02:47:18.426Z,20.57
2018-02-05T02:49:19.446Z,20.70
2018-02-05T02:51:20.447Z,21.20
2018-02-05T02:53:21.443Z,19.67
2018-02-05T02:55:26.735Z,20.53
2018-02-05T02:57:27.783Z,23.13
2018-02-05T02:59:28.762Z,21.53
2018-02-05T03:01:29.981Z,21.00
2018-02-05T03:03:31.048Z,20.90
2018-02-05T03:05:32.244Z,21.30
2018-02-05T03:07:33.980Z,22.93
2018-02-05T03:09:35.112Z,20.90
2018-02-05T03:11:36.415Z,21.07
2018-02-05T03:13:37.371Z,22.33
2018-02-05T03:15:38.350Z,21.33
2018-02-05T03:17:39.327Z,19.03
2018-02-05T03:19:40.398Z,20.10
2018-02-05T03:21:41.377Z,21.80
2018-02-05T03:23:43.857Z,21.50
2018-02-05T03:25:44.867Z,19.30
2018-02-05T03:27:46.231Z,20.23
2018-02-05T03:29:47.940Z,20.63
2018-02-05T03:31:49.036Z,22.60
2018-02-05T03:33:50.497Z,19.83
2018-02-05T03:38:36.868Z,21.50
2018-02-05T03:40:38.014Z,19.33
2018-02-05T03:42:39.151Z,21.10
2018-02-05T03:44:40.366Z,20.60
2018-02-05T03:46:42.389Z,21.60
2018-02-05T03:48:43.493Z,22.60
2018-02-05T03:50:44.610Z,21.80
2018-02-05T03:53:06.990Z,21.90
2018-02-05T03:55:08.115Z,20.63
2018-02-05T04:02:17.023Z,19.80
2018-02-05T04:04:17.978Z,20.17
2018-02-05T04:06:18.962Z,21.80
2018-02-05T04:08:19.915Z,21.30
2018-02-05T04:10:20.888Z,21.33
2018-02-05T04:12:21.939Z,22.70
2018-02-05T04:14:22.904Z,22.23
2018-02-05T04:16:23.880Z,22.57
2018-02-05T04:18:25.642Z,21.00
2018-02-05T04:20:26.680Z,23.40
2018-02-05T04:22:27.694Z,22.13
2018-02-05T04:24:28.655Z,20.13
2018-02-05T04:26:29.624Z,23.23
2018-02-05T04:28:30.656Z,21.50
2018-02-05T04:30:31.691Z,24.50
2018-02-05T04:32:32.639Z,23.03
2018-02-05T04:34:33.642Z,22.83
2018-02-05T04:36:50.537Z,21.60
2018-02-05T04:38:57.915Z,21.00
2018-02-05T04:40:58.875Z,22.07
2018-02-05T04:43:18.994Z,19.87
2018-02-05T04:47:42.885Z,21.07
2018-02-05T04:49:43.947Z,22.07
2018-02-05T04:54:10.115Z,19.23
2018-02-05T04:56:11.075Z,21.37
2018-02-05T04:58:12.048Z,22.70
2018-02-05T05:00:13.162Z,21.63
2018-02-05T05:02:14.162Z,20.23
2018-02-05T05:04:15.135Z,20.70
2018-02-05T05:06:16.196Z,20.50
2018-02-05T05:08:17.188Z,22.00
2018-02-05T05:10:18.284Z,20.80
2018-02-05T05:12:19.244Z,19.40
2018-02-05T05:16:51.252Z,20.67
2018-02-05T05:18:52.215Z,18.17
2018-02-05T05:20:53.216Z,21.20
2018-02-05T05:22:54.167Z,20.40
2018-02-05T05:24:55.123Z,19.17
2018-02-05T05:26:56.067Z,20.73
2018-02-05T05:28:57.047Z,18.50
2018-02-05T05:33:34.972Z,19.07
2018-02-05T05:35:36.677Z,19.70
2018-02-05T05:37:37.640Z,18.60
2018-02-05T05:39:38.604Z,19.87
2018-02-05T05:41:39.547Z,18.73
2018-02-05T05:46:08.801Z,19.53
2018-02-05T05:51:01.734Z,18.13
2018-02-05T05:53:02.732Z,19.37
2018-02-05T05:55:03.897Z,19.60
2018-02-05T05:59:59.095Z,18.33
2018-02-05T06:04:26.872Z,18.10
2018-02-05T06:06:28.053Z,19.30
2018-02-05T06:08:29.031Z,20.00
2018-02-05T06:10:30.214Z,19.23
2018-02-05T06:12:31.195Z,19.83
2018-02-05T06:14:32.892Z,18.70
2018-02-05T06:16:33.944Z,18.47
2018-02-05T06:18:34.991Z,20.70
2018-02-05T06:20:36.131Z,22.50
2018-02-05T06:22:37.110Z,22.00
2018-02-05T06:24:58.371Z,20.93
2018-02-05T06:26:59.443Z,20.77
2018-02-05T06:29:00.513Z,21.40
2018-02-05T06:31:01.510Z,22.03
2018-02-05T06:33:28.407Z,23.17
2018-02-05T06:35:29.568Z,21.03
2018-02-05T06:37:30.608Z,20.70
2018-02-05T06:39:31.650Z,23.10
2018-02-05T06:44:00.301Z,23.80
2018-02-05T06:46:01.471Z,22.60
2018-02-05T06:48:28.519Z,23.60
2018-02-05T06:50:41.667Z,22.33
2018-02-05T06:53:07.108Z,21.20
2018-02-05T06:55:20.681Z,24.57
2018-02-05T06:57:21.724Z,26.50
2018-02-05T06:59:28.975Z,100.67
2018-02-05T07:01:30.736Z,25.53
2018-02-05T07:03:31.900Z,25.27
2018-02-05T07:05:36.827Z,23.87
2018-02-05T07:07:40.886Z,22.37
2018-02-05T07:09:42.008Z,24.03
2018-02-05T07:12:06.741Z,24.37
2018-02-05T07:14:07.758Z,21.27
2018-02-05T07:16:09.451Z,23.13
2018-02-05T07:18:10.595Z,24.03
2018-02-05T07:20:11.579Z,23.77
2018-02-05T07:22:25.192Z,29.07
2018-02-05T07:24:26.279Z,27.40
2018-02-05T07:26:27.263Z,24.97
2018-02-05T07:28:28.323Z,23.57
2018-02-05T07:32:46.383Z,21.10
2018-02-05T07:37:03.408Z,19.47
2018-02-05T07:39:04.416Z,17.57
2018-02-05T07:41:05.409Z,20.93
2018-02-05T07:43:07.287Z,20.43
2018-02-05T07:45:09.009Z,19.70
2018-02-05T07:47:10.007Z,18.23
2018-02-05T07:49:11.143Z,19.80
2018-02-05T07:51:12.116Z,18.47
2018-02-05T07:53:13.170Z,18.87
2018-02-05T07:55:14.152Z,18.67
2018-02-05T07:59:28.342Z,18.10
2018-02-05T08:01:29.325Z,19.83
2018-02-05T08:03:31.047Z,18.80
2018-02-05T08:05:32.249Z,18.13
2018-02-05T08:07:38.026Z,20.20
2018-02-05T08:09:39.169Z,18.40
2018-02-05T08:11:40.171Z,20.07
2018-02-05T08:13:43.196Z,18.43
2018-02-05T08:15:44.225Z,19.60
2018-02-05T08:17:45.260Z,20.43
2018-02-05T08:19:48.635Z,18.20
2018-02-05T08:21:49.825Z,18.40
2018-02-05T08:25:58.894Z,18.07
2018-02-05T08:27:59.892Z,19.20
2018-02-05T08:30:00.870Z,18.83
2018-02-05T08:34:30.783Z,19.33
2018-02-05T08:36:31.783Z,19.07
2018-02-05T08:38:32.767Z,17.73
2018-02-05T08:40:33.736Z,17.63
2018-02-05T08:42:34.693Z,20.30
2018-02-05T08:44:35.626Z,16.43
2018-02-05T08:46:36.595Z,18.07
2018-02-05T08:48:38.471Z,16.90
2018-02-05T08:50:40.172Z,17.73
2018-02-05T08:52:41.133Z,17.90
2018-02-05T08:54:42.287Z,16.00
2018-02-05T08:56:43.255Z,17.07
2018-02-05T08:58:47.723Z,18.03
2018-02-05T09:00:48.798Z,18.60
2018-02-05T09:02:49.836Z,16.77
2018-02-05T09:09:58.832Z,18.10
2018-02-05T09:14:06.066Z,17.10
2018-02-05T09:16:07.019Z,16.83
2018-02-05T09:18:07.967Z,17.43
2018-02-05T09:20:10.287Z,16.40
2018-02-05T09:22:12.700Z,17.00
2018-02-05T09:24:13.703Z,18.10
2018-02-05T09:26:14.772Z,16.93
2018-02-05T09:28:17.945Z,17.07
2018-02-05T09:30:19.100Z,16.87
2018-02-05T09:32:20.825Z,18.43
2018-02-05T09:34:21.788Z,19.27
2018-02-05T09:36:24.133Z,18.90
2018-02-05T09:38:25.880Z,17.43
2018-02-05T09:40:26.875Z,18.53
2018-02-05T09:42:30.490Z,20.67
2018-02-05T09:44:49.219Z,18.60
2018-02-05T09:46:55.422Z,16.70
2018-02-05T09:48:56.829Z,19.03
2018-02-05T09:50:58.591Z,19.37
2018-02-05T09:53:04.271Z,17.43
2018-02-05T09:55:05.303Z,18.50
2018-02-05T09:57:06.251Z,16.27
2018-02-05T10:01:44.420Z,17.70
2018-02-05T10:03:45.400Z,18.20
2018-02-05T10:05:46.427Z,19.27
2018-02-05T10:07:53.440Z,16.77
2018-02-05T10:09:55.352Z,19.07
2018-02-05T10:11:56.311Z,18.80
2018-02-05T10:13:57.259Z,19.10
2018-02-05T10:15:58.414Z,18.83
2018-02-05T10:17:59.371Z,18.80
2018-02-05T10:20:00.330Z,17.87
2018-02-05T10:22:01.282Z,18.67
2018-02-05T10:24:06.237Z,20.80
2018-02-05T10:26:07.377Z,20.00
2018-02-05T10:28:09.107Z,18.07
2018-02-05T10:30:10.084Z,21.77
2018-02-05T10:32:15.180Z,22.53
2018-02-05T11:51:34.494Z,17.13
2018-02-05T11:55:59.795Z,18.00
2018-02-05T11:58:00.777Z,19.17
2018-02-05T12:00:01.736Z,19.00
2018-02-05T12:02:03.448Z,18.00
2018-02-05T12:04:04.438Z,17.30
2018-02-05T12:06:05.634Z,20.37
2018-02-05T12:08:06.596Z,19.33
2018-02-05T12:12:37.662Z,17.63
2018-02-05T12:14:38.631Z,19.30
2018-02-05T12:16:39.607Z,18.87
2018-02-05T12:18:41.308Z,17.00
2018-02-05T12:20:47.068Z,18.00
2018-02-05T12:22:50.375Z,17.83
2018-02-05T12:24:51.332Z,17.53
2018-02-05T12:26:52.304Z,18.33
2018-02-05T12:28:53.516Z,17.10
2018-02-05T12:31:02.094Z,16.60
2018-02-05T12:33:03.106Z,18.40
2018-02-05T12:35:07.401Z,19.23
2018-02-05T12:39:39.428Z,18.13
2018-02-05T12:41:40.383Z,18.27
2018-02-05T12:43:41.357Z,20.43
2018-02-05T12:45:43.082Z,21.43
2018-02-05T12:47:44.075Z,22.30
2018-02-05T12:49:45.779Z,21.93
2018-02-05T12:51:46.727Z,22.67
2018-02-05T12:53:47.676Z,21.93
2018-02-05T12:55:48.871Z,23.03
2018-02-05T12:58:07.545Z,22.93
2018-02-05T13:00:14.722Z,21.67
2018-02-05T13:02:16.427Z,21.97
2018-02-05T13:04:37.335Z,22.10
2018-02-05T13:06:41.138Z,20.30
2018-02-05T13:08:42.127Z,24.17
2018-02-05T13:10:43.212Z,23.63
2018-02-05T13:12:54.950Z,26.00
2018-02-05T13:14:55.996Z,24.30
2018-02-05T13:16:57.016Z,21.80
2018-02-05T13:21:26.897Z,23.40
2018-02-05T13:23:55.368Z,20.23
2018-02-05T13:25:56.356Z,23.90
2018-02-05T13:27:57.603Z,19.70
2018-02-05T13:29:58.787Z,19.60
2018-02-05T13:34:27.938Z,20.70
2018-02-05T13:36:28.888Z,19.47
2018-02-05T13:38:29.852Z,20.80
2018-02-05T13:40:30.855Z,19.60
2018-02-05T13:42:32.572Z,22.60
2018-02-05T13:44:33.693Z,23.17
2018-02-05T13:46:54.649Z,22.40
2018-02-05T13:48:55.612Z,22.67
2018-02-05T13:55:52.397Z,21.33
2018-02-05T13:57:53.396Z,22.63
2018-02-05T13:59:55.331Z,23.67
2018-02-05T14:01:56.313Z,25.60
2018-02-05T14:03:58.315Z,23.73
2018-02-05T14:05:59.283Z,21.70
2018-02-05T14:08:00.494Z,23.20
2018-02-05T14:10:01.684Z,21.87
2018-02-05T14:12:02.988Z,21.30
2018-02-05T14:14:04.031Z,21.20
2018-02-05T14:16:05.728Z,21.80
2018-02-05T14:18:06.853Z,22.17
2018-02-05T14:20:08.305Z,19.57
2018-02-05T14:22:09.302Z,21.37
2018-02-05T14:24:10.271Z,19.53
2018-02-05T14:26:11.245Z,20.03
2018-02-05T14:28:12.898Z,20.33
2018-02-05T14:30:13.925Z,17.73
2018-02-05T14:32:14.872Z,17.90
2018-02-05T14:34:16.524Z,17.40
2018-02-05T14:36:17.533Z,17.20
2018-02-05T14:38:18.955Z,15.90
2018-02-05T14:40:22.946Z,17.47
2018-02-05T14:42:23.964Z,16.57
2018-02-05T14:44:25.056Z,18.10
2018-02-05T14:46:27.721Z,18.00
2018-02-05T14:48:29.014Z,16.60
2018-02-05T14:50:30.003Z,16.20
2018-02-05T14:54:44.376Z,17.50
2018-02-05T14:56:49.603Z,12.93
2018-02-05T14:58:53.664Z,16.60
2018-02-05T15:00:58.304Z,14.97
2018-02-05T15:02:59.385Z,13.80
2018-02-05T15:05:01.095Z,16.93
2018-02-05T15:07:02.153Z,15.60
2018-02-05T15:09:03.219Z,15.37
2018-02-05T15:11:04.199Z,15.03
2018-02-05T15:13:05.165Z,16.10
2018-02-05T15:15:06.347Z,15.17
2018-02-05T15:17:07.323Z,14.70
2018-02-05T15:19:09.206Z,15.77
2018-02-05T15:21:10.207Z,15.47
2018-02-05T15:23:13.440Z,16.30
2018-02-05T15:25:16.043Z,16.63
2018-02-05T15:27:17.072Z,17.50
2018-02-05T15:29:19.995Z,19.60
2018-02-05T15:31:21.008Z,18.77
2018-02-05T15:33:22.345Z,17.87
2018-02-05T15:35:24.108Z,17.57
2018-02-05T15:37:25.357Z,16.53
2018-02-05T15:39:26.328Z,18.10
2018-02-05T15:41:27.363Z,16.90
2018-02-05T15:43:28.266Z,15.40
2018-02-05T15:45:29.223Z,14.90
2018-02-05T15:47:30.177Z,16.00
2018-02-05T15:49:31.398Z,15.13
2018-02-05T15:51:32.406Z,16.77
2018-02-05T15:53:34.001Z,16.50
2018-02-05T15:55:35.053Z,16.23
2018-02-05T15:57:35.995Z,16.87
2018-02-05T15:59:38.506Z,19.70
2018-02-05T16:01:39.783Z,15.67
2018-02-05T16:03:40.746Z,15.67
2018-02-05T16:05:41.848Z,13.47
2018-02-05T16:07:42.770Z,14.43
2018-02-05T16:09:43.750Z,13.97
2018-02-05T16:11:44.864Z,18.70
2018-02-05T16:13:45.790Z,17.23
2018-02-05T16:15:47.491Z,14.97
2018-02-05T16:17:48.628Z,22.07
2018-02-05T16:19:49.584Z,20.10
2018-02-05T16:21:50.503Z,23.60
2018-02-05T16:23:52.206Z,19.00
2018-02-05T16:25:53.189Z,15.43
2018-02-05T16:27:54.151Z,14.77
2018-02-05T16:29:55.121Z,16.00
2018-02-05T16:31:56.070Z,15.20
2018-02-05T16:33:57.079Z,15.03
2018-02-05T16:35:58.010Z,12.93
2018-02-05T16:40:27.118Z,11.73
2018-02-05T16:42:28.059Z,12.30
2018-02-05T16:44:28.986Z,12.93
2018-02-05T16:46:29.909Z,13.70
2018-02-05T16:48:31.570Z,13.93
2018-02-05T16:50:39.331Z,12.63
2018-02-05T16:52:40.295Z,12.20
2018-02-05T16:55:10.213Z,12.03
2018-02-05T16:57:11.378Z,11.77
2018-02-05T16:59:12.359Z,10.70
2018-02-05T17:01:13.354Z,11.57
2018-02-05T17:03:14.300Z,10.75
2018-02-05T17:07:39.736Z,10.67
2018-02-05T17:09:40.666Z,11.80
2018-02-05T17:12:09.150Z,11.23
2018-02-05T17:16:37.750Z,11.57
2018-02-05T17:21:10.677Z,10.13
2018-02-05T17:23:11.619Z,10.10
2018-02-05T17:25:19.234Z,13.73
2018-02-05T17:27:20.200Z,11.60
2018-02-05T17:29:29.847Z,10.27
2018-02-05T17:33:58.730Z,10.10
2018-02-05T17:35:59.723Z,9.77
2018-02-05T17:38:00.688Z,9.87
2018-02-05T17:40:10.158Z,9.30
2018-02-05T17:42:11.879Z,9.63
2018-02-05T17:44:38.978Z,10.00
2018-02-05T17:49:08.403Z,10.97
2018-02-05T17:51:09.430Z,11.60
2018-02-05T17:53:10.607Z,13.30
2018-02-05T17:55:11.603Z,11.60
2018-02-05T17:57:38.942Z,10.33
2018-02-05T17:59:39.892Z,11.52
2018-02-05T18:01:40.871Z,11.20
2018-02-05T18:06:08.345Z,10.93
2018-02-05T18:08:09.316Z,10.37
2018-02-05T18:15:06.593Z,11.13
2018-02-05T18:17:07.548Z,10.47
2018-02-05T18:19:08.528Z,11.18
2018-02-05T18:23:37.039Z,12.53
2018-02-05T18:25:39.027Z,11.70
2018-02-05T18:27:40.014Z,11.77
2018-02-05T18:29:41.024Z,10.67
2018-02-05T18:31:42.023Z,11.27
2018-02-05T18:33:43.040Z,11.53
2018-02-05T18:36:08.913Z,11.00
2018-02-05T18:38:09.957Z,12.30
2018-02-05T18:42:38.355Z,12.47
2018-02-05T18:44:39.347Z,12.75
2018-02-05T18:46:40.304Z,12.30
2018-02-05T18:48:41.290Z,11.77
2018-02-05T18:50:42.275Z,12.37
2018-02-05T18:52:43.326Z,13.10
2018-02-05T18:54:44.258Z,12.50
2018-02-05T18:57:09.987Z,12.87
2018-02-05T18:59:10.980Z,17.60
2018-02-05T19:01:12.729Z,14.30
2018-02-05T19:03:14.155Z,13.63
2018-02-05T19:05:39.301Z,13.13
2018-02-05T19:07:40.312Z,13.20
2018-02-05T19:09:41.263Z,13.27
2018-02-05T19:11:42.219Z,13.50
2018-02-05T19:13:45.202Z,12.77
2018-02-05T19:15:46.165Z,15.23
2018-02-05T19:18:09.284Z,14.33
2018-02-05T19:25:05.972Z,15.00
2018-02-05T19:29:35.848Z,13.90
2018-02-05T19:31:40.268Z,15.33
2018-02-05T19:36:39.220Z,17.77
2018-02-05T19:38:46.854Z,17.20
2018-02-05T19:40:58.725Z,18.23
2018-02-05T19:42:59.686Z,20.83
2018-02-05T19:45:00.774Z,16.97
2018-02-05T19:47:02.506Z,16.40
2018-02-05T19:49:13.483Z,15.70
2018-02-05T19:51:14.488Z,16.40
2018-02-05T19:53:15.567Z,17.03
2018-02-05T19:55:16.524Z,22.20
2018-02-05T19:57:17.552Z,19.93
2018-02-05T19:59:18.555Z,16.27
2018-02-05T20:03:47.816Z,16.63
2018-02-05T20:05:48.922Z,16.43
2018-02-05T20:07:49.948Z,16.73
2018-02-05T20:14:46.714Z,15.50
2018-02-05T20:16:48.829Z,14.63
2018-02-05T20:18:49.837Z,16.87
2018-02-05T20:20:50.796Z,16.97
2018-02-05T20:25:19.459Z,18.17
2018-02-05T20:27:20.429Z,16.40
2018-02-05T20:29:22.187Z,19.03
2018-02-05T20:31:24.099Z,22.83
2018-02-05T20:33:25.240Z,18.53
2018-02-05T20:35:26.231Z,17.05
2018-02-05T20:37:27.302Z,21.83
2018-02-05T20:39:28.251Z,21.13
2018-02-05T20:41:49.148Z,22.13
2018-02-05T20:48:59.902Z,21.07
2018-02-05T20:51:01.479Z,33.10
2018-02-05T20:53:02.791Z,20.17
2018-02-05T20:55:04.827Z,21.33
2018-02-05T20:57:06.931Z,18.07
2018-02-05T21:04:04.343Z,23.97
2018-02-05T21:06:05.397Z,17.80
2018-02-05T21:08:06.444Z,18.17
2018-02-05T21:10:07.744Z,16.23
2018-02-05T21:12:08.760Z,15.07
2018-02-05T21:14:11.007Z,15.75
2018-02-05T21:16:12.435Z,15.27
2018-02-05T21:18:14.300Z,12.50
2018-02-05T21:20:15.263Z,13.00
2018-02-05T21:22:16.428Z,12.93
2018-02-05T21:24:17.373Z,16.58
2018-02-05T21:26:18.390Z,14.73
2018-02-05T21:28:19.689Z,14.38
2018-02-05T21:30:20.695Z,13.02
2018-02-05T21:32:21.652Z,12.73
2018-02-05T21:34:22.612Z,12.27
2018-02-05T21:36:23.581Z,12.63
2018-02-05T21:38:24.577Z,14.95
2018-02-05T21:40:25.744Z,13.60
2018-02-05T21:42:26.810Z,12.20
2018-02-05T21:46:55.593Z,11.47
2018-02-05T21:48:56.599Z,11.27
2018-02-05T21:50:58.958Z,10.82
2018-02-05T21:53:00.209Z,11.10
2018-02-05T21:55:01.697Z,12.10
2018-02-05T21:57:03.312Z,10.68
2018-02-05T22:01:51.500Z,10.20
2018-02-05T22:04:18.277Z,15.98
2018-02-05T22:06:19.273Z,12.60
2018-02-05T22:08:20.413Z,12.30
2018-02-05T22:12:50.610Z,11.88
2018-02-05T22:14:51.586Z,10.25
2018-02-05T22:16:52.676Z,10.10
2018-02-05T22:19:03.892Z,8.90
2018-02-05T22:21:04.873Z,10.43
2018-02-05T22:23:05.911Z,11.12
2018-02-05T22:25:06.871Z,10.47
2018-02-05T22:27:07.841Z,9.90
2018-02-05T22:29:09.003Z,10.90
2018-02-05T22:31:10.081Z,10.88
2018-02-05T22:33:11.055Z,11.82
2018-02-05T22:35:38.473Z,12.25
2018-02-05T22:40:07.209Z,10.25
2018-02-05T22:42:08.183Z,10.90
2018-02-05T22:44:09.160Z,10.07
2018-02-05T22:48:37.512Z,10.50
2018-02-05T22:50:38.527Z,9.43
2018-02-05T22:52:39.635Z,10.45
2018-02-05T22:57:08.010Z,9.70
2018-02-05T23:01:36.600Z,10.95
2018-02-05T23:03:37.680Z,10.97
2018-02-05T23:05:38.629Z,11.80
2018-02-05T23:07:39.722Z,10.00
2018-02-05T23:09:40.705Z,10.50
2018-02-05T23:11:41.695Z,10.57
2018-02-05T23:13:42.668Z,10.87
2018-02-05T23:15:43.621Z,10.33
2018-02-05T23:22:49.200Z,9.95
2018-02-05T23:25:08.443Z,11.18
2018-02-05T23:27:09.431Z,8.95
2018-02-05T23:29:10.411Z,14.43
2018-02-05T23:33:39.448Z,11.15
2018-02-05T23:38:17.952Z,14.48
2018-02-05T23:40:18.936Z,11.43
2018-02-05T23:42:19.983Z,11.57
2018-02-05T23:44:21.044Z,9.90
2018-02-05T23:53:55.375Z,9.63
